Barfleur — FNIE — position and weather

sailwx.info

Track history (hours):
 
Tides and Currents Weather Stations Pressure Air Temp Water Temp Dewpoint Dewpoint Depression Visibility Wind Speed Wind Dir Waves Ship Positions

Barfleur

Operator: Brittany Ferries

Last reported at 2018-Aug-15 11:29 UTC. Time now 2018-Aug-15 12:39 UTC.
Position N 49°40' W 001°36'.

Length 158 m; draft 5.1 m.

Type: Ship. MMSI: 227289000.

Date/timePositionNaut miles runAvg speedWind from/ knotsBaromVisibWave heightAir tempDewpointWater temp
2018-Aug-15 11:29N 49°40' W 001°36'917.6
2018-Aug-15 10:59N 49°49' W 001°38'1218.4
2018-Aug-15 10:20N 50°00' W 001°41'618.1
2018-Aug-15 10:00N 50°06' W 001°43'918.0
2018-Aug-15 09:28N 50°16' W 001°46'918.0
2018-Aug-15 08:58N 50°25' W 001°49'817.9
2018-Aug-15 08:30N 50°33' W 001°51'815.6
2018-Aug-15 08:00N 50°40' W 001°56'3 6.1
2018-Aug-15 07:31N 50°42' W 001°59'0 0.7
2018-Aug-15 06:56N 50°42' W 001°59'0 0.0
2018-Aug-15 06:29N 50°42' W 001°59'0 0.0
2018-Aug-15 05:56N 50°42' W 001°59'0 0.0
2018-Aug-15 05:26N 50°42' W 001°59'0 0.0
2018-Aug-15 04:59N 50°42' W 001°59'0 0.0
2018-Aug-15 04:26N 50°42' W 001°59'0 0.0
2018-Aug-15 03:56N 50°42' W 001°59'0 0.0
2018-Aug-15 03:29N 50°42' W 001°59'0 0.0
2018-Aug-15 02:59N 50°42' W 001°59'0 0.0
2018-Aug-15 02:26N 50°42' W 001°59'0 0.0
2018-Aug-15 01:59N 50°42' W 001°59'0 0.0
2018-Aug-15 01:26N 50°42' W 001°59'0 0.0
2018-Aug-15 00:59N 50°42' W 001°59'0 0.0
2018-Aug-15 00:29N 50°42' W 001°59'0 0.0
2018-Aug-14 23:59N 50°42' W 001°59'0 0.0
2018-Aug-14 23:29N 50°42' W 001°59'0 0.0
2018-Aug-14 22:59N 50°42' W 001°59'0 0.0
2018-Aug-14 22:29N 50°42' W 001°59'0 0.0
2018-Aug-14 21:59N 50°42' W 001°59'0 0.0
2018-Aug-14 21:23N 50°42' W 001°59'0 0.0
2018-Aug-14 21:00N 50°42' W 001°59'0 0.6
2018-Aug-14 20:30N 50°42' W 001°59'511.1
2018-Aug-14 20:00N 50°38' W 001°54'11 1.0
2018-Aug-14 08:47N 50°27' W 001°51'517.9
2018-Aug-14 08:31N 50°32' W 001°52'816.0
2018-Aug-14 08:00N 50°40' W 001°56'4 7.2
2018-Aug-14 07:30N 50°42' W 001°59'0 0.1
2018-Aug-14 06:57N 50°42' W 001°59'0 0.0
2018-Aug-14 06:27N 50°42' W 001°59'0 0.0
2018-Aug-14 05:57N 50°42' W 001°59'0 0.0
2018-Aug-14 05:29N 50°42' W 001°59'0 0.0
2018-Aug-14 04:57N 50°42' W 001°59'0 0.0
2018-Aug-14 04:27N 50°42' W 001°59'0 0.0
2018-Aug-14 03:59N 50°42' W 001°59'0 0.0
2018-Aug-14 03:29N 50°42' W 001°59'0 0.0
2018-Aug-14 02:59N 50°42' W 001°59'0 0.0
2018-Aug-14 02:28N 50°42' W 001°59'0 0.0
2018-Aug-14 01:58N 50°42' W 001°59'0 0.0
2018-Aug-14 01:28N 50°42' W 001°59'0 0.0
2018-Aug-14 01:00N 50°42' W 001°59'0 0.0
2018-Aug-14 00:28N 50°42' W 001°59'0 0.0
2018-Aug-13 23:58N 50°42' W 001°59'0 0.0
2018-Aug-13 23:30N 50°42' W 001°59'0 0.0
2018-Aug-13 22:58N 50°42' W 001°59'0 0.0
2018-Aug-13 22:28N 50°42' W 001°59'0 0.0
2018-Aug-13 21:58N 50°42' W 001°59'0 0.0
2018-Aug-13 21:28N 50°42' W 001°59'0 0.0
2018-Aug-13 20:58N 50°42' W 001°59'0 0.5
2018-Aug-13 20:29N 50°42' W 001°59'510.2
2018-Aug-13 20:00N 50°38' W 001°55'5918.0
2018-Aug-13 16:43N 49°40' W 001°39'2 0.3
2018-Aug-13 11:31N 49°39' W 001°37'4817.1
2018-Aug-13 08:41N 50°27' W 001°49'318.5
2018-Aug-13 08:30N 50°31' W 001°50'917.3
2018-Aug-13 08:00N 50°39' W 001°55'5 9.1
2018-Aug-13 07:30N 50°42' W 001°59'0 0.9
2018-Aug-13 06:57N 50°42' W 001°59'0 0.0
2018-Aug-13 06:29N 50°42' W 001°59'0 0.0
2018-Aug-13 05:59N 50°42' W 001°59'0 0.0
2018-Aug-13 05:27N 50°42' W 001°59'0 0.0
2018-Aug-13 04:57N 50°42' W 001°59'0 0.0
2018-Aug-13 04:29N 50°42' W 001°59'0 0.0
2018-Aug-13 03:57N 50°42' W 001°59'0 0.0
2018-Aug-13 03:30N 50°42' W 001°59'0 0.0
2018-Aug-13 03:00N 50°42' W 001°59'0 0.0
2018-Aug-13 02:24N 50°42' W 001°59'0 0.0
2018-Aug-13 02:00N 50°42' W 001°59'0 0.0
2018-Aug-13 01:24N 50°42' W 001°59'0 0.0
2018-Aug-13 00:57N 50°42' W 001°59'0 0.0
2018-Aug-13 00:27N 50°42' W 001°59'0 0.0
2018-Aug-12 23:57N 50°42' W 001°59'0 0.0
2018-Aug-12 23:30N 50°42' W 001°59'0 0.0
2018-Aug-12 23:00N 50°42' W 001°59'0 0.0
2018-Aug-12 22:30N 50°42' W 001°59'0 0.0
2018-Aug-12 21:57N 50°42' W 001°59'0 0.0
2018-Aug-12 21:30N 50°42' W 001°59'0 0.0
2018-Aug-12 20:57N 50°42' W 001°59'0 1.1
2018-Aug-12 20:30N 50°42' W 001°59'611.5
2018-Aug-12 20:00N 50°37' W 001°54'918.4
2018-Aug-12 19:31N 50°29' W 001°50'4618.0
2018-Aug-12 16:58N 49°43' W 001°40'4 0.8
2018-Aug-12 11:39N 49°40' W 001°37'1 7.2
2018-Aug-12 11:28N 49°40' W 001°39'1915.7
2018-Aug-12 10:14N 49°59' W 001°44'417.7
2018-Aug-12 10:00N 50°03' W 001°45'917.6
2018-Aug-12 09:30N 50°12' W 001°47'917.6
2018-Aug-12 09:00N 50°21' W 001°49'917.3
2018-Aug-12 08:29N 50°30' W 001°51'816.6
2018-Aug-12 08:01N 50°38' W 001°54'510.4
2018-Aug-12 07:30N 50°42' W 001°58'1 2.0
2018-Aug-12 07:00N 50°42' W 001°59'0 0.0
2018-Aug-12 06:30N 50°42' W 001°59'0 0.0
2018-Aug-12 06:00N 50°42' W 001°59'0 0.0
2018-Aug-12 05:18N 50°42' W 001°59'0 0.0
2018-Aug-12 05:00N 50°42' W 001°59'0 0.0
2018-Aug-12 04:30N 50°42' W 001°59'0 0.0
2018-Aug-12 04:00N 50°42' W 001°59'0 0.0
2018-Aug-12 03:30N 50°42' W 001°59'0 0.0
2018-Aug-12 02:54N 50°42' W 001°59'0 0.0
2018-Aug-12 02:24N 50°42' W 001°59'0 0.0
2018-Aug-12 01:54N 50°42' W 001°59'0 0.0
2018-Aug-12 01:30N 50°42' W 001°59'0 0.0
2018-Aug-12 01:00N 50°42' W 001°59'0 0.0
2018-Aug-12 00:30N 50°42' W 001°59'0 0.0
2018-Aug-12 00:00N 50°42' W 001°59'0 0.0
2018-Aug-11 23:30N 50°42' W 001°59'0 0.0
2018-Aug-11 23:00N 50°42' W 001°59'0 0.0
2018-Aug-11 22:30N 50°42' W 001°59'0 0.0
2018-Aug-11 21:54N 50°42' W 001°59'0 0.0
2018-Aug-11 21:30N 50°42' W 001°59'0 0.0
2018-Aug-11 20:52N 50°42' W 001°59'0 0.9
2018-Aug-11 20:30N 50°42' W 001°59'611.0
2018-Aug-11 19:59N 50°38' W 001°54'918.8
2018-Aug-11 19:29N 50°28' W 001°51'49 6.2
2018-Aug-11 11:30N 49°40' W 001°37'4916.4
2018-Aug-11 08:32N 50°27' W 001°51'118.1
2018-Aug-11 08:28N 50°29' W 001°51'817.7
2018-Aug-11 08:00N 50°37' W 001°54'611.8
2018-Aug-11 07:30N 50°42' W 001°57'1 2.5
2018-Aug-11 06:59N 50°42' W 001°59'0 0.0
2018-Aug-11 06:27N 50°42' W 001°59'0 0.0
2018-Aug-11 05:59N 50°42' W 001°59'0 0.0
2018-Aug-11 05:29N 50°42' W 001°59'0 0.0
2018-Aug-11 04:59N 50°42' W 001°59'0 0.0
2018-Aug-11 04:23N 50°42' W 001°59'0 0.0
2018-Aug-11 03:53N 50°42' W 001°59'0 0.0
2018-Aug-11 03:29N 50°42' W 001°59'0 0.0
2018-Aug-11 02:59N 50°42' W 001°59'0 0.0
2018-Aug-11 02:29N 50°42' W 001°59'0 0.0
2018-Aug-11 01:59N 50°42' W 001°59'0 0.0
2018-Aug-11 01:29N 50°42' W 001°59'0 0.0
2018-Aug-11 00:59N 50°42' W 001°59'0 0.0
2018-Aug-11 00:27N 50°42' W 001°59'0 0.0
2018-Aug-10 23:59N 50°42' W 001°59'0 0.0
2018-Aug-10 23:29N 50°42' W 001°59'0 0.0
2018-Aug-10 22:59N 50°42' W 001°59'0 0.0
2018-Aug-10 22:23N 50°42' W 001°59'0 0.0
2018-Aug-10 21:59N 50°42' W 001°59'0 0.0
2018-Aug-10 21:29N 50°42' W 001°59'0 0.0
2018-Aug-10 20:53N 50°42' W 001°59'1 1.9
2018-Aug-10 20:30N 50°42' W 001°58'611.4
2018-Aug-10 20:00N 50°37' W 001°54'918.1
2018-Aug-10 19:30N 50°28' W 001°51'50 6.2
2018-Aug-10 11:30N 49°39' W 001°37'2515.8
2018-Aug-10 09:57N 50°03' W 001°47'2517.7
2018-Aug-10 08:31N 50°28' W 001°51'017.8
2018-Aug-10 08:30N 50°29' W 001°51'817.4
2018-Aug-10 08:00N 50°37' W 001°54'611.5
2018-Aug-10 07:30N 50°42' W 001°58'1 2.0
2018-Aug-10 07:00N 50°42' W 001°59'0 0.0
2018-Aug-10 06:30N 50°42' W 001°59'0 0.0
2018-Aug-10 06:00N 50°42' W 001°59'0 0.0
2018-Aug-10 05:30N 50°42' W 001°59'0 0.0
2018-Aug-10 05:00N 50°42' W 001°59'0 0.0
2018-Aug-10 04:30N 50°42' W 001°59'0 0.0
2018-Aug-10 04:00N 50°42' W 001°59'0 0.0
2018-Aug-10 03:30N 50°42' W 001°59'0 0.0
2018-Aug-10 02:59N 50°42' W 001°59'0 0.0
2018-Aug-10 02:30N 50°42' W 001°59'0 0.0
2018-Aug-10 02:00N 50°42' W 001°59'0 0.0
2018-Aug-10 01:30N 50°42' W 001°59'0 0.0
2018-Aug-10 01:00N 50°42' W 001°59'0 0.0
2018-Aug-10 00:30N 50°42' W 001°59'0 0.0
2018-Aug-10 00:00N 50°42' W 001°59'0 0.0
2018-Aug-09 23:30N 50°42' W 001°59'0 0.0
2018-Aug-09 22:54N 50°42' W 001°59'0 0.0
2018-Aug-09 22:29N 50°42' W 001°59'0 0.0
2018-Aug-09 22:00N 50°42' W 001°59'0 0.0
2018-Aug-09 21:30N 50°42' W 001°59'0 0.0
2018-Aug-09 21:00N 50°42' W 001°59'2 4.8
2018-Aug-09 20:30N 50°41' W 001°57'815.2
2018-Aug-09 20:00N 50°34' W 001°52'3017.6
2018-Aug-09 18:19N 50°05' W 001°44'717.4
2018-Aug-09 17:55N 49°58' W 001°42'1017.3
2018-Aug-09 17:19N 49°48' W 001°40'41 4.8
2018-Aug-09 08:45N 50°28' W 001°51'518.7
2018-Aug-09 08:30N 50°32' W 001°52'815.6
2018-Aug-09 08:00N 50°40' W 001°56'3 6.3
2018-Aug-09 07:27N 50°42' W 001°59'0 0.0
2018-Aug-09 06:57N 50°42' W 001°59'0 0.0
2018-Aug-09 06:27N 50°42' W 001°59'0 0.0
2018-Aug-09 05:59N 50°42' W 001°59'0 0.0
2018-Aug-09 05:30N 50°42' W 001°59'0 0.0
2018-Aug-09 05:00N 50°42' W 001°59'0 0.0
2018-Aug-09 04:29N 50°42' W 001°59'0 0.0
2018-Aug-09 04:00N 50°42' W 001°59'0 0.0
2018-Aug-09 03:31N 50°42' W 001°59'0 0.0
2018-Aug-09 03:00N 50°42' W 001°59'0 0.0
2018-Aug-09 02:29N 50°42' W 001°59'0 0.0
2018-Aug-09 02:01N 50°42' W 001°59'0 0.0
2018-Aug-09 01:30N 50°42' W 001°59'0 0.0
2018-Aug-09 01:01N 50°42' W 001°59'0 0.0
2018-Aug-09 00:30N 50°42' W 001°59'0 0.0
2018-Aug-09 00:00N 50°42' W 001°59'0 0.0
2018-Aug-08 23:30N 50°42' W 001°59'0 0.0
2018-Aug-08 23:00N 50°42' W 001°59'0 0.0
2018-Aug-08 22:30N 50°42' W 001°59'0 0.0
2018-Aug-08 22:00N 50°42' W 001°59'0 0.0
2018-Aug-08 21:30N 50°42' W 001°59'0 0.0
2018-Aug-08 20:59N 50°42' W 001°59'2 3.5
2018-Aug-08 20:31N 50°42' W 001°57'611.4
2018-Aug-08 20:00N 50°37' W 001°53'4717.9
2018-Aug-08 17:21N 49°50' W 001°39'39 4.4
2018-Aug-08 08:27N 50°28' W 001°51'818.6
2018-Aug-08 08:00N 50°37' W 001°53'612.7
2018-Aug-08 07:30N 50°42' W 001°58'1 2.1
2018-Aug-08 06:58N 50°42' W 001°59'0 0.0
2018-Aug-08 06:28N 50°42' W 001°59'0 0.0
2018-Aug-08 05:58N 50°42' W 001°59'0 0.0
2018-Aug-08 05:16N 50°42' W 001°59'0 0.0
2018-Aug-08 04:58N 50°42' W 001°59'0 0.0
2018-Aug-08 04:28N 50°42' W 001°59'0 0.0
2018-Aug-08 03:58N 50°42' W 001°59'0 0.0
2018-Aug-08 03:28N 50°42' W 001°59'0 0.0
2018-Aug-08 02:58N 50°42' W 001°59'0 0.0
2018-Aug-08 02:28N 50°42' W 001°59'0 0.0
2018-Aug-08 01:58N 50°42' W 001°59'0 0.0
2018-Aug-08 01:28N 50°42' W 001°59'0 0.0
2018-Aug-08 00:52N 50°42' W 001°59'0 0.0
2018-Aug-08 00:28N 50°42' W 001°59'0 0.0
2018-Aug-07 23:58N 50°42' W 001°59'0 0.0
2018-Aug-07 23:28N 50°42' W 001°59'0 0.0
2018-Aug-07 22:58N 50°42' W 001°59'0 0.0
2018-Aug-07 22:28N 50°42' W 001°59'0 0.0
2018-Aug-07 21:58N 50°42' W 001°59'0 0.0
2018-Aug-07 21:28N 50°42' W 001°59'0 0.0
2018-Aug-07 20:59N 50°42' W 001°59'1 2.8
2018-Aug-07 20:30N 50°42' W 001°57'611.8
2018-Aug-07 20:01N 50°37' W 001°54'917.5
2018-Aug-07 19:30N 50°28' W 001°50'4417.9
2018-Aug-07 17:04N 49°45' W 001°38'217.7
2018-Aug-07 16:56N 49°43' W 001°37'4 0.9
2018-Aug-07 12:03N 49°39' W 001°37'0 0.0
2018-Aug-07 12:00N 49°39' W 001°37'4 7.2
2018-Aug-07 11:30N 49°42' W 001°40'816.9
2018-Aug-07 11:00N 49°50' W 001°43'918.2
2018-Aug-07 10:30N 49°59' W 001°46'918.5
2018-Aug-07 10:00N 50°08' W 001°47'918.4
2018-Aug-07 09:31N 50°17' W 001°48'918.4
2018-Aug-07 09:00N 50°26' W 001°51'918.8
2018-Aug-07 08:30N 50°36' W 001°53'713.8
2018-Aug-07 08:01N 50°42' W 001°57'2 3.1
2018-Aug-07 07:30N 50°42' W 001°59'0 0.0
2018-Aug-07 07:00N 50°42' W 001°59'0 0.0
2018-Aug-07 06:31N 50°42' W 001°59'0 0.0
2018-Aug-07 06:01N 50°42' W 001°59'0 0.0
2018-Aug-07 05:31N 50°42' W 001°59'0 0.0
2018-Aug-07 05:00N 50°42' W 001°59'0 0.0
2018-Aug-07 04:31N 50°42' W 001°59'0 0.0
2018-Aug-07 04:01N 50°42' W 001°59'0 0.0
2018-Aug-07 03:30N 50°42' W 001°59'0 0.0
2018-Aug-07 03:01N 50°42' W 001°59'0 0.0
2018-Aug-07 02:30N 50°42' W 001°59'0 0.0
2018-Aug-07 02:01N 50°42' W 001°59'0 0.0
2018-Aug-07 01:31N 50°42' W 001°59'0 0.0
2018-Aug-07 01:01N 50°42' W 001°59'0 0.0
2018-Aug-07 00:31N 50°42' W 001°59'0 0.0
2018-Aug-07 00:01N 50°42' W 001°59'0 0.0
2018-Aug-06 23:31N 50°42' W 001°59'0 0.0
2018-Aug-06 23:01N 50°42' W 001°59'0 0.0
2018-Aug-06 22:30N 50°42' W 001°59'0 0.0
2018-Aug-06 21:59N 50°42' W 001°59'0 0.0
2018-Aug-06 21:30N 50°42' W 001°59'0 0.0
2018-Aug-06 21:00N 50°42' W 001°59'0 1.0
2018-Aug-06 20:31N 50°42' W 001°59'510.0
2018-Aug-06 19:59N 50°38' W 001°54'815.9
2018-Aug-06 19:30N 50°31' W 001°51'918.2
2018-Aug-06 19:00N 50°22' W 001°48'918.2
2018-Aug-06 18:30N 50°13' W 001°45'918.2
2018-Aug-06 18:00N 50°04' W 001°42'918.1
2018-Aug-06 17:30N 49°55' W 001°40'918.2
2018-Aug-06 17:00N 49°46' W 001°37'713.2
2018-Aug-06 16:28N 49°39' W 001°37'0 0.2
2018-Aug-06 15:34N 49°39' W 001°37'0 0.0
2018-Aug-06 15:28N 49°39' W 001°37'0 0.0
2018-Aug-06 15:00N 49°39' W 001°37'0 0.0
2018-Aug-06 14:30N 49°39' W 001°37'0 0.0
2018-Aug-06 14:00N 49°39' W 001°37'0 0.0
2018-Aug-06 13:30N 49°39' W 001°37'0 0.0
2018-Aug-06 13:00N 49°39' W 001°37'0 0.0
2018-Aug-06 12:30N 49°39' W 001°37'0 0.0
2018-Aug-06 12:00N 49°39' W 001°37'0 0.2
2018-Aug-06 11:30N 49°39' W 001°37'4 8.7
2018-Aug-06 11:00N 49°42' W 001°41'917.4
2018-Aug-06 10:30N 49°51' W 001°41'918.0
2018-Aug-06 10:00N 49°60' W 001°44'1018.3
2018-Aug-06 09:26N 50°10' W 001°48'918.4
2018-Aug-06 08:57N 50°19' W 001°51'818.7
2018-Aug-06 08:30N 50°27' W 001°52'1019.1
2018-Aug-06 08:00N 50°37' W 001°53'612.4
2018-Aug-06 07:30N 50°42' W 001°58'1 2.2
2018-Aug-06 06:59N 50°42' W 001°59'0 0.0
2018-Aug-06 06:28N 50°42' W 001°59'0 0.0
2018-Aug-06 05:56N 50°42' W 001°59'0 0.0
2018-Aug-06 05:26N 50°42' W 001°59'0 0.0
2018-Aug-06 04:59N 50°42' W 001°59'0 0.0
2018-Aug-06 04:29N 50°42' W 001°59'0 0.0
2018-Aug-06 03:59N 50°42' W 001°59'0 0.0
2018-Aug-06 03:29N 50°42' W 001°59'0 0.0
2018-Aug-06 02:58N 50°42' W 001°59'0 0.0
2018-Aug-06 02:28N 50°42' W 001°59'0 0.0
2018-Aug-06 01:55N 50°42' W 001°59'0 0.0
2018-Aug-06 01:26N 50°42' W 001°59'0 0.0
2018-Aug-06 00:59N 50°42' W 001°59'0 0.0
2018-Aug-06 00:25N 50°42' W 001°59'0 0.0
2018-Aug-05 23:58N 50°42' W 001°59'0 0.0
2018-Aug-05 23:28N 50°42' W 001°59'0 0.0
2018-Aug-05 22:59N 50°42' W 001°59'0 0.0
2018-Aug-05 22:29N 50°42' W 001°59'0 0.0
2018-Aug-05 21:58N 50°42' W 001°59'0 0.0
2018-Aug-05 21:28N 50°42' W 001°59'0 0.0
2018-Aug-05 20:59N 50°42' W 001°59'1 2.1
2018-Aug-05 20:29N 50°42' W 001°58'5 9.8
2018-Aug-05 20:00N 50°38' W 001°54'816.9
2018-Aug-05 19:30N 50°30' W 001°51'1018.1
2018-Aug-05 18:57N 50°20' W 001°50'1118.1
2018-Aug-05 18:20N 50°09' W 001°48'818.2
2018-Aug-05 17:52N 50°00' W 001°46'718.6
2018-Aug-05 17:29N 49°54' W 001°41'918.5
2018-Aug-05 16:59N 49°45' W 001°37'612.4
2018-Aug-05 16:30N 49°39' W 001°37'0 0.1
2018-Aug-05 14:39N 49°39' W 001°37'0 0.0
2018-Aug-05 13:59N 49°39' W 001°37'0 0.0
2018-Aug-05 13:30N 49°39' W 001°37'0 0.0
2018-Aug-05 12:59N 49°39' W 001°37'0 0.0
2018-Aug-05 12:24N 49°39' W 001°37'0 0.0
2018-Aug-05 12:00N 49°39' W 001°37'0 0.1
2018-Aug-05 11:30N 49°39' W 001°37'  
Track history (hours):
 
Tides and Currents Weather Stations Pressure Air Temp Water Temp Dewpoint Dewpoint Depression Visibility Wind Speed Wind Dir Waves Ship Positions

Barfleur

Operator: Brittany Ferries

Last reported at 2018-Aug-15 11:29 UTC. Time now 2018-Aug-15 12:39 UTC.
Position N 49°40' W 001°36'.

Length 158 m; draft 5.1 m.

Type: Ship. MMSI: 227289000.

Date/timePositionNaut miles runAvg speedWind from/ knotsBaromVisibWave heightAir tempDewpointWater temp
2018-Aug-15 11:29N 49°40' W 001°36'917.6
2018-Aug-15 10:59N 49°49' W 001°38'1218.4
2018-Aug-15 10:20N 50°00' W 001°41'618.1
2018-Aug-15 10:00N 50°06' W 001°43'918.0
2018-Aug-15 09:28N 50°16' W 001°46'918.0
2018-Aug-15 08:58N 50°25' W 001°49'817.9
2018-Aug-15 08:30N 50°33' W 001°51'815.6
2018-Aug-15 08:00N 50°40' W 001°56'3 6.1
2018-Aug-15 07:31N 50°42' W 001°59'0 0.7
2018-Aug-15 06:56N 50°42' W 001°59'0 0.0
2018-Aug-15 06:29N 50°42' W 001°59'0 0.0
2018-Aug-15 05:56N 50°42' W 001°59'0 0.0
2018-Aug-15 05:26N 50°42' W 001°59'0 0.0
2018-Aug-15 04:59N 50°42' W 001°59'0 0.0
2018-Aug-15 04:26N 50°42' W 001°59'0 0.0
2018-Aug-15 03:56N 50°42' W 001°59'0 0.0
2018-Aug-15 03:29N 50°42' W 001°59'0 0.0
2018-Aug-15 02:59N 50°42' W 001°59'0 0.0
2018-Aug-15 02:26N 50°42' W 001°59'0 0.0
2018-Aug-15 01:59N 50°42' W 001°59'0 0.0
2018-Aug-15 01:26N 50°42' W 001°59'0 0.0
2018-Aug-15 00:59N 50°42' W 001°59'0 0.0
2018-Aug-15 00:29N 50°42' W 001°59'0 0.0
2018-Aug-14 23:59N 50°42' W 001°59'0 0.0
2018-Aug-14 23:29N 50°42' W 001°59'0 0.0
2018-Aug-14 22:59N 50°42' W 001°59'0 0.0
2018-Aug-14 22:29N 50°42' W 001°59'0 0.0
2018-Aug-14 21:59N 50°42' W 001°59'0 0.0
2018-Aug-14 21:23N 50°42' W 001°59'0 0.0
2018-Aug-14 21:00N 50°42' W 001°59'0 0.6
2018-Aug-14 20:30N 50°42' W 001°59'511.1
2018-Aug-14 20:00N 50°38' W 001°54'11 1.0
2018-Aug-14 08:47N 50°27' W 001°51'517.9
2018-Aug-14 08:31N 50°32' W 001°52'816.0
2018-Aug-14 08:00N 50°40' W 001°56'4 7.2
2018-Aug-14 07:30N 50°42' W 001°59'0 0.1
2018-Aug-14 06:57N 50°42' W 001°59'0 0.0
2018-Aug-14 06:27N 50°42' W 001°59'0 0.0
2018-Aug-14 05:57N 50°42' W 001°59'0 0.0
2018-Aug-14 05:29N 50°42' W 001°59'0 0.0
2018-Aug-14 04:57N 50°42' W 001°59'0 0.0
2018-Aug-14 04:27N 50°42' W 001°59'0 0.0
2018-Aug-14 03:59N 50°42' W 001°59'0 0.0
2018-Aug-14 03:29N 50°42' W 001°59'0 0.0
2018-Aug-14 02:59N 50°42' W 001°59'0 0.0
2018-Aug-14 02:28N 50°42' W 001°59'0 0.0
2018-Aug-14 01:58N 50°42' W 001°59'0 0.0
2018-Aug-14 01:28N 50°42' W 001°59'0 0.0
2018-Aug-14 01:00N 50°42' W 001°59'0 0.0
2018-Aug-14 00:28N 50°42' W 001°59'0 0.0
2018-Aug-13 23:58N 50°42' W 001°59'0 0.0
2018-Aug-13 23:30N 50°42' W 001°59'0 0.0
2018-Aug-13 22:58N 50°42' W 001°59'0 0.0
2018-Aug-13 22:28N 50°42' W 001°59'0 0.0
2018-Aug-13 21:58N 50°42' W 001°59'0 0.0
2018-Aug-13 21:28N 50°42' W 001°59'0 0.0
2018-Aug-13 20:58N 50°42' W 001°59'0 0.5
2018-Aug-13 20:29N 50°42' W 001°59'510.2
2018-Aug-13 20:00N 50°38' W 001°55'5918.0
2018-Aug-13 16:43N 49°40' W 001°39'2 0.3
2018-Aug-13 11:31N 49°39' W 001°37'4817.1
2018-Aug-13 08:41N 50°27' W 001°49'318.5
2018-Aug-13 08:30N 50°31' W 001°50'917.3
2018-Aug-13 08:00N 50°39' W 001°55'5 9.1
2018-Aug-13 07:30N 50°42' W 001°59'0 0.9
2018-Aug-13 06:57N 50°42' W 001°59'0 0.0
2018-Aug-13 06:29N 50°42' W 001°59'0 0.0
2018-Aug-13 05:59N 50°42' W 001°59'0 0.0
2018-Aug-13 05:27N 50°42' W 001°59'0 0.0
2018-Aug-13 04:57N 50°42' W 001°59'0 0.0
2018-Aug-13 04:29N 50°42' W 001°59'0 0.0
2018-Aug-13 03:57N 50°42' W 001°59'0 0.0
2018-Aug-13 03:30N 50°42' W 001°59'0 0.0
2018-Aug-13 03:00N 50°42' W 001°59'0 0.0
2018-Aug-13 02:24N 50°42' W 001°59'0 0.0
2018-Aug-13 02:00N 50°42' W 001°59'0 0.0
2018-Aug-13 01:24N 50°42' W 001°59'0 0.0
2018-Aug-13 00:57N 50°42' W 001°59'0 0.0
2018-Aug-13 00:27N 50°42' W 001°59'0 0.0
2018-Aug-12 23:57N 50°42' W 001°59'0 0.0
2018-Aug-12 23:30N 50°42' W 001°59'0 0.0
2018-Aug-12 23:00N 50°42' W 001°59'0 0.0
2018-Aug-12 22:30N 50°42' W 001°59'0 0.0
2018-Aug-12 21:57N 50°42' W 001°59'0 0.0
2018-Aug-12 21:30N 50°42' W 001°59'0 0.0
2018-Aug-12 20:57N 50°42' W 001°59'0 1.1
2018-Aug-12 20:30N 50°42' W 001°59'611.5
2018-Aug-12 20:00N 50°37' W 001°54'918.4
2018-Aug-12 19:31N 50°29' W 001°50'4618.0
2018-Aug-12 16:58N 49°43' W 001°40'4 0.8
2018-Aug-12 11:39N 49°40' W 001°37'1 7.2
2018-Aug-12 11:28N 49°40' W 001°39'1915.7
2018-Aug-12 10:14N 49°59' W 001°44'417.7
2018-Aug-12 10:00N 50°03' W 001°45'917.6
2018-Aug-12 09:30N 50°12' W 001°47'917.6
2018-Aug-12 09:00N 50°21' W 001°49'917.3
2018-Aug-12 08:29N 50°30' W 001°51'816.6
2018-Aug-12 08:01N 50°38' W 001°54'510.4
2018-Aug-12 07:30N 50°42' W 001°58'1 2.0
2018-Aug-12 07:00N 50°42' W 001°59'0 0.0
2018-Aug-12 06:30N 50°42' W 001°59'0 0.0
2018-Aug-12 06:00N 50°42' W 001°59'0 0.0
2018-Aug-12 05:18N 50°42' W 001°59'0 0.0
2018-Aug-12 05:00N 50°42' W 001°59'0 0.0
2018-Aug-12 04:30N 50°42' W 001°59'0 0.0
2018-Aug-12 04:00N 50°42' W 001°59'0 0.0
2018-Aug-12 03:30N 50°42' W 001°59'0 0.0
2018-Aug-12 02:54N 50°42' W 001°59'0 0.0
2018-Aug-12 02:24N 50°42' W 001°59'0 0.0
2018-Aug-12 01:54N 50°42' W 001°59'0 0.0
2018-Aug-12 01:30N 50°42' W 001°59'0 0.0
2018-Aug-12 01:00N 50°42' W 001°59'0 0.0
2018-Aug-12 00:30N 50°42' W 001°59'0 0.0
2018-Aug-12 00:00N 50°42' W 001°59'0 0.0
2018-Aug-11 23:30N 50°42' W 001°59'0 0.0
2018-Aug-11 23:00N 50°42' W 001°59'0 0.0
2018-Aug-11 22:30N 50°42' W 001°59'0 0.0
2018-Aug-11 21:54N 50°42' W 001°59'0 0.0
2018-Aug-11 21:30N 50°42' W 001°59'0 0.0
2018-Aug-11 20:52N 50°42' W 001°59'0 0.9
2018-Aug-11 20:30N 50°42' W 001°59'611.0
2018-Aug-11 19:59N 50°38' W 001°54'918.8
2018-Aug-11 19:29N 50°28' W 001°51'49 6.2
2018-Aug-11 11:30N 49°40' W 001°37'4916.4
2018-Aug-11 08:32N 50°27' W 001°51'118.1
2018-Aug-11 08:28N 50°29' W 001°51'817.7
2018-Aug-11 08:00N 50°37' W 001°54'611.8
2018-Aug-11 07:30N 50°42' W 001°57'1 2.5
2018-Aug-11 06:59N 50°42' W 001°59'0 0.0
2018-Aug-11 06:27N 50°42' W 001°59'0 0.0
2018-Aug-11 05:59N 50°42' W 001°59'0 0.0
2018-Aug-11 05:29N 50°42' W 001°59'0 0.0
2018-Aug-11 04:59N 50°42' W 001°59'0 0.0
2018-Aug-11 04:23N 50°42' W 001°59'0 0.0
2018-Aug-11 03:53N 50°42' W 001°59'0 0.0
2018-Aug-11 03:29N 50°42' W 001°59'0 0.0
2018-Aug-11 02:59N 50°42' W 001°59'0 0.0
2018-Aug-11 02:29N 50°42' W 001°59'0 0.0
2018-Aug-11 01:59N 50°42' W 001°59'0 0.0
2018-Aug-11 01:29N 50°42' W 001°59'0 0.0
2018-Aug-11 00:59N 50°42' W 001°59'0 0.0
2018-Aug-11 00:27N 50°42' W 001°59'0 0.0
2018-Aug-10 23:59N 50°42' W 001°59'0 0.0
2018-Aug-10 23:29N 50°42' W 001°59'0 0.0
2018-Aug-10 22:59N 50°42' W 001°59'0 0.0
2018-Aug-10 22:23N 50°42' W 001°59'0 0.0
2018-Aug-10 21:59N 50°42' W 001°59'0 0.0
2018-Aug-10 21:29N 50°42' W 001°59'0 0.0
2018-Aug-10 20:53N 50°42' W 001°59'1 1.9
2018-Aug-10 20:30N 50°42' W 001°58'611.4
2018-Aug-10 20:00N 50°37' W 001°54'918.1
2018-Aug-10 19:30N 50°28' W 001°51'50 6.2
2018-Aug-10 11:30N 49°39' W 001°37'2515.8
2018-Aug-10 09:57N 50°03' W 001°47'2517.7
2018-Aug-10 08:31N 50°28' W 001°51'017.8
2018-Aug-10 08:30N 50°29' W 001°51'817.4
2018-Aug-10 08:00N 50°37' W 001°54'611.5
2018-Aug-10 07:30N 50°42' W 001°58'1 2.0
2018-Aug-10 07:00N 50°42' W 001°59'0 0.0
2018-Aug-10 06:30N 50°42' W 001°59'0 0.0
2018-Aug-10 06:00N 50°42' W 001°59'0 0.0
2018-Aug-10 05:30N 50°42' W 001°59'0 0.0
2018-Aug-10 05:00N 50°42' W 001°59'0 0.0
2018-Aug-10 04:30N 50°42' W 001°59'0 0.0
2018-Aug-10 04:00N 50°42' W 001°59'0 0.0
2018-Aug-10 03:30N 50°42' W 001°59'0 0.0
2018-Aug-10 02:59N 50°42' W 001°59'0 0.0
2018-Aug-10 02:30N 50°42' W 001°59'0 0.0
2018-Aug-10 02:00N 50°42' W 001°59'0 0.0
2018-Aug-10 01:30N 50°42' W 001°59'0 0.0
2018-Aug-10 01:00N 50°42' W 001°59'0 0.0
2018-Aug-10 00:30N 50°42' W 001°59'0 0.0
2018-Aug-10 00:00N 50°42' W 001°59'0 0.0
2018-Aug-09 23:30N 50°42' W 001°59'0 0.0
2018-Aug-09 22:54N 50°42' W 001°59'0 0.0
2018-Aug-09 22:29N 50°42' W 001°59'0 0.0
2018-Aug-09 22:00N 50°42' W 001°59'0 0.0
2018-Aug-09 21:30N 50°42' W 001°59'0 0.0
2018-Aug-09 21:00N 50°42' W 001°59'2 4.8
2018-Aug-09 20:30N 50°41' W 001°57'815.2
2018-Aug-09 20:00N 50°34' W 001°52'3017.6
2018-Aug-09 18:19N 50°05' W 001°44'717.4
2018-Aug-09 17:55N 49°58' W 001°42'1017.3
2018-Aug-09 17:19N 49°48' W 001°40'41 4.8
2018-Aug-09 08:45N 50°28' W 001°51'518.7
2018-Aug-09 08:30N 50°32' W 001°52'815.6
2018-Aug-09 08:00N 50°40' W 001°56'3 6.3
2018-Aug-09 07:27N 50°42' W 001°59'0 0.0
2018-Aug-09 06:57N 50°42' W 001°59'0 0.0
2018-Aug-09 06:27N 50°42' W 001°59'0 0.0
2018-Aug-09 05:59N 50°42' W 001°59'0 0.0
2018-Aug-09 05:30N 50°42' W 001°59'0 0.0
2018-Aug-09 05:00N 50°42' W 001°59'0 0.0
2018-Aug-09 04:29N 50°42' W 001°59'0 0.0
2018-Aug-09 04:00N 50°42' W 001°59'0 0.0
2018-Aug-09 03:31N 50°42' W 001°59'0 0.0
2018-Aug-09 03:00N 50°42' W 001°59'0 0.0
2018-Aug-09 02:29N 50°42' W 001°59'0 0.0
2018-Aug-09 02:01N 50°42' W 001°59'0 0.0
2018-Aug-09 01:30N 50°42' W 001°59'0 0.0
2018-Aug-09 01:01N 50°42' W 001°59'0 0.0
2018-Aug-09 00:30N 50°42' W 001°59'0 0.0
2018-Aug-09 00:00N 50°42' W 001°59'0 0.0
2018-Aug-08 23:30N 50°42' W 001°59'0 0.0
2018-Aug-08 23:00N 50°42' W 001°59'0 0.0
2018-Aug-08 22:30N 50°42' W 001°59'0 0.0
2018-Aug-08 22:00N 50°42' W 001°59'0 0.0
2018-Aug-08 21:30N 50°42' W 001°59'0 0.0
2018-Aug-08 20:59N 50°42' W 001°59'2 3.5
2018-Aug-08 20:31N 50°42' W 001°57'611.4
2018-Aug-08 20:00N 50°37' W 001°53'4717.9
2018-Aug-08 17:21N 49°50' W 001°39'39 4.4
2018-Aug-08 08:27N 50°28' W 001°51'818.6
2018-Aug-08 08:00N 50°37' W 001°53'612.7
2018-Aug-08 07:30N 50°42' W 001°58'1 2.1
2018-Aug-08 06:58N 50°42' W 001°59'0 0.0
2018-Aug-08 06:28N 50°42' W 001°59'0 0.0
2018-Aug-08 05:58N 50°42' W 001°59'0 0.0
2018-Aug-08 05:16N 50°42' W 001°59'0 0.0
2018-Aug-08 04:58N 50°42' W 001°59'0 0.0
2018-Aug-08 04:28N 50°42' W 001°59'0 0.0
2018-Aug-08 03:58N 50°42' W 001°59'0 0.0
2018-Aug-08 03:28N 50°42' W 001°59'0 0.0
2018-Aug-08 02:58N 50°42' W 001°59'0 0.0
2018-Aug-08 02:28N 50°42' W 001°59'0 0.0
2018-Aug-08 01:58N 50°42' W 001°59'0 0.0
2018-Aug-08 01:28N 50°42' W 001°59'0 0.0
2018-Aug-08 00:52N 50°42' W 001°59'0 0.0
2018-Aug-08 00:28N 50°42' W 001°59'0 0.0
2018-Aug-07 23:58N 50°42' W 001°59'0 0.0
2018-Aug-07 23:28N 50°42' W 001°59'0 0.0
2018-Aug-07 22:58N 50°42' W 001°59'0 0.0
2018-Aug-07 22:28N 50°42' W 001°59'0 0.0
2018-Aug-07 21:58N 50°42' W 001°59'0 0.0
2018-Aug-07 21:28N 50°42' W 001°59'0 0.0
2018-Aug-07 20:59N 50°42' W 001°59'1 2.8
2018-Aug-07 20:30N 50°42' W 001°57'611.8
2018-Aug-07 20:01N 50°37' W 001°54'917.5
2018-Aug-07 19:30N 50°28' W 001°50'4417.9
2018-Aug-07 17:04N 49°45' W 001°38'217.7
2018-Aug-07 16:56N 49°43' W 001°37'4 0.9
2018-Aug-07 12:03N 49°39' W 001°37'0 0.0
2018-Aug-07 12:00N 49°39' W 001°37'4 7.2
2018-Aug-07 11:30N 49°42' W 001°40'816.9
2018-Aug-07 11:00N 49°50' W 001°43'918.2
2018-Aug-07 10:30N 49°59' W 001°46'918.5
2018-Aug-07 10:00N 50°08' W 001°47'918.4
2018-Aug-07 09:31N 50°17' W 001°48'918.4
2018-Aug-07 09:00N 50°26' W 001°51'918.8
2018-Aug-07 08:30N 50°36' W 001°53'713.8
2018-Aug-07 08:01N 50°42' W 001°57'2 3.1
2018-Aug-07 07:30N 50°42' W 001°59'0 0.0
2018-Aug-07 07:00N 50°42' W 001°59'0 0.0
2018-Aug-07 06:31N 50°42' W 001°59'0 0.0
2018-Aug-07 06:01N 50°42' W 001°59'0 0.0
2018-Aug-07 05:31N 50°42' W 001°59'0 0.0
2018-Aug-07 05:00N 50°42' W 001°59'0 0.0
2018-Aug-07 04:31N 50°42' W 001°59'0 0.0
2018-Aug-07 04:01N 50°42' W 001°59'0 0.0
2018-Aug-07 03:30N 50°42' W 001°59'0 0.0
2018-Aug-07 03:01N 50°42' W 001°59'0 0.0
2018-Aug-07 02:30N 50°42' W 001°59'0 0.0
2018-Aug-07 02:01N 50°42' W 001°59'0 0.0
2018-Aug-07 01:31N 50°42' W 001°59'0 0.0
2018-Aug-07 01:01N 50°42' W 001°59'0 0.0
2018-Aug-07 00:31N 50°42' W 001°59'0 0.0
2018-Aug-07 00:01N 50°42' W 001°59'0 0.0
2018-Aug-06 23:31N 50°42' W 001°59'0 0.0
2018-Aug-06 23:01N 50°42' W 001°59'0 0.0
2018-Aug-06 22:30N 50°42' W 001°59'0 0.0
2018-Aug-06 21:59N 50°42' W 001°59'0 0.0
2018-Aug-06 21:30N 50°42' W 001°59'0 0.0
2018-Aug-06 21:00N 50°42' W 001°59'0 1.0
2018-Aug-06 20:31N 50°42' W 001°59'510.0
2018-Aug-06 19:59N 50°38' W 001°54'815.9
2018-Aug-06 19:30N 50°31' W 001°51'918.2
2018-Aug-06 19:00N 50°22' W 001°48'918.2
2018-Aug-06 18:30N 50°13' W 001°45'918.2
2018-Aug-06 18:00N 50°04' W 001°42'918.1
2018-Aug-06 17:30N 49°55' W 001°40'918.2
2018-Aug-06 17:00N 49°46' W 001°37'713.2
2018-Aug-06 16:28N 49°39' W 001°37'0 0.2
2018-Aug-06 15:34N 49°39' W 001°37'0 0.0
2018-Aug-06 15:28N 49°39' W 001°37'0 0.0
2018-Aug-06 15:00N 49°39' W 001°37'0 0.0
2018-Aug-06 14:30N 49°39' W 001°37'0 0.0
2018-Aug-06 14:00N 49°39' W 001°37'0 0.0
2018-Aug-06 13:30N 49°39' W 001°37'0 0.0
2018-Aug-06 13:00N 49°39' W 001°37'0 0.0
2018-Aug-06 12:30N 49°39' W 001°37'0 0.0
2018-Aug-06 12:00N 49°39' W 001°37'0 0.2
2018-Aug-06 11:30N 49°39' W 001°37'4 8.7
2018-Aug-06 11:00N 49°42' W 001°41'917.4
2018-Aug-06 10:30N 49°51' W 001°41'918.0
2018-Aug-06 10:00N 49°60' W 001°44'1018.3
2018-Aug-06 09:26N 50°10' W 001°48'918.4
2018-Aug-06 08:57N 50°19' W 001°51'818.7
2018-Aug-06 08:30N 50°27' W 001°52'1019.1
2018-Aug-06 08:00N 50°37' W 001°53'612.4
2018-Aug-06 07:30N 50°42' W 001°58'1 2.2
2018-Aug-06 06:59N 50°42' W 001°59'0 0.0
2018-Aug-06 06:28N 50°42' W 001°59'0 0.0
2018-Aug-06 05:56N 50°42' W 001°59'0 0.0
2018-Aug-06 05:26N 50°42' W 001°59'0 0.0
2018-Aug-06 04:59N 50°42' W 001°59'0 0.0
2018-Aug-06 04:29N 50°42' W 001°59'0 0.0
2018-Aug-06 03:59N 50°42' W 001°59'0 0.0
2018-Aug-06 03:29N 50°42' W 001°59'0 0.0
2018-Aug-06 02:58N 50°42' W 001°59'0 0.0
2018-Aug-06 02:28N 50°42' W 001°59'0 0.0
2018-Aug-06 01:55N 50°42' W 001°59'0 0.0
2018-Aug-06 01:26N 50°42' W 001°59'0 0.0
2018-Aug-06 00:59N 50°42' W 001°59'0 0.0
2018-Aug-06 00:25N 50°42' W 001°59'0 0.0
2018-Aug-05 23:58N 50°42' W 001°59'0 0.0
2018-Aug-05 23:28N 50°42' W 001°59'0 0.0
2018-Aug-05 22:59N 50°42' W 001°59'0 0.0
2018-Aug-05 22:29N 50°42' W 001°59'0 0.0
2018-Aug-05 21:58N 50°42' W 001°59'0 0.0
2018-Aug-05 21:28N 50°42' W 001°59'0 0.0
2018-Aug-05 20:59N 50°42' W 001°59'1 2.1
2018-Aug-05 20:29N 50°42' W 001°58'5 9.8
2018-Aug-05 20:00N 50°38' W 001°54'816.9
2018-Aug-05 19:30N 50°30' W 001°51'1018.1
2018-Aug-05 18:57N 50°20' W 001°50'1118.1
2018-Aug-05 18:20N 50°09' W 001°48'818.2
2018-Aug-05 17:52N 50°00' W 001°46'718.6
2018-Aug-05 17:29N 49°54' W 001°41'918.5
2018-Aug-05 16:59N 49°45' W 001°37'612.4
2018-Aug-05 16:30N 49°39' W 001°37'0 0.1
2018-Aug-05 14:39N 49°39' W 001°37'0 0.0
2018-Aug-05 13:59N 49°39' W 001°37'0 0.0
2018-Aug-05 13:30N 49°39' W 001°37'0 0.0
2018-Aug-05 12:59N 49°39' W 001°37'0 0.0
2018-Aug-05 12:24N 49°39' W 001°37'0 0.0
2018-Aug-05 12:00N 49°39' W 001°37'0 0.1
2018-Aug-05 11:30N 49°39' W 001°37'  

Dump ship's entire track history